createdAt,value
2022-11-30T00:00:17.851Z,38.80
2022-11-30T00:01:17.851Z,34.40
2022-11-30T00:02:17.944Z,34.80
2022-11-30T00:03:17.936Z,34.80
2022-11-30T00:04:17.830Z,38.80
2022-11-30T00:05:17.856Z,37.40
2022-11-30T00:06:17.833Z,37.00
2022-11-30T00:07:17.876Z,38.90
2022-11-30T00:08:17.829Z,35.70
2022-11-30T00:09:17.805Z,34.50
2022-11-30T00:10:17.795Z,33.00
2022-11-30T00:11:17.810Z,32.00
2022-11-30T00:12:17.787Z,32.20
2022-11-30T00:13:17.793Z,32.80
2022-11-30T00:14:17.768Z,32.40
2022-11-30T00:15:17.769Z,32.70
2022-11-30T00:16:17.846Z,32.20
2022-11-30T00:17:17.774Z,34.60
2022-11-30T00:18:17.747Z,30.80
2022-11-30T00:19:17.744Z,33.60
2022-11-30T00:20:17.751Z,31.40
2022-11-30T00:21:17.745Z,33.10
2022-11-30T00:22:17.754Z,31.60
2022-11-30T00:23:17.751Z,31.90
2022-11-30T00:24:17.714Z,32.50
2022-11-30T00:25:17.740Z,36.40
2022-11-30T00:26:17.707Z,39.40
2022-11-30T00:27:17.716Z,44.80
2022-11-30T00:28:17.721Z,37.60
2022-11-30T00:29:17.690Z,39.00
2022-11-30T00:30:17.698Z,37.30
2022-11-30T00:31:17.955Z,45.60
2022-11-30T00:32:17.692Z,33.80
2022-11-30T00:33:17.711Z,46.30
2022-11-30T00:34:17.691Z,35.40
2022-11-30T00:35:17.671Z,32.50
2022-11-30T00:36:17.679Z,33.10
2022-11-30T00:37:17.960Z,33.20
2022-11-30T00:38:17.677Z,31.70
2022-11-30T00:39:17.691Z,33.00
2022-11-30T00:40:17.654Z,30.90
2022-11-30T00:41:17.654Z,32.20
2022-11-30T00:42:17.683Z,35.60
2022-11-30T00:43:17.651Z,34.70
2022-11-30T00:44:17.652Z,31.30
2022-11-30T00:45:17.637Z,32.20
2022-11-30T00:46:17.669Z,33.20
2022-11-30T00:47:17.632Z,32.50
2022-11-30T00:48:17.610Z,31.80
2022-11-30T00:49:17.630Z,32.70
2022-11-30T00:50:17.601Z,31.70
2022-11-30T00:51:17.599Z,33.40
2022-11-30T00:52:17.632Z,33.90
2022-11-30T00:53:17.584Z,34.20
2022-11-30T00:54:17.585Z,33.60
2022-11-30T00:55:17.597Z,32.70
2022-11-30T00:56:17.573Z,32.50
2022-11-30T00:57:17.597Z,31.90
2022-11-30T00:58:17.610Z,33.60
2022-11-30T00:59:17.603Z,32.70
2022-11-30T01:00:17.565Z,31.60
2022-11-30T01:01:17.648Z,39.60
2022-11-30T01:02:17.599Z,34.00
2022-11-30T01:03:17.577Z,35.20
2022-11-30T01:04:17.559Z,36.90
2022-11-30T01:05:17.528Z,36.00
2022-11-30T01:06:17.569Z,37.80
2022-11-30T01:07:17.640Z,36.40
2022-11-30T01:08:17.522Z,35.20
2022-11-30T01:09:17.507Z,37.40
2022-11-30T01:10:17.512Z,36.10
2022-11-30T01:11:17.549Z,36.10
2022-11-30T01:12:17.496Z,36.10
2022-11-30T01:13:17.523Z,38.00
2022-11-30T01:14:17.490Z,38.90
2022-11-30T01:15:17.501Z,36.30
2022-11-30T01:16:17.569Z,35.10
2022-11-30T01:17:17.477Z,35.50
2022-11-30T01:18:17.522Z,34.90
2022-11-30T01:19:17.466Z,35.20
2022-11-30T01:20:17.472Z,36.20
2022-11-30T01:21:17.460Z,36.00
2022-11-30T01:22:17.499Z,36.50
2022-11-30T01:23:17.472Z,36.10
2022-11-30T01:24:17.452Z,35.50
2022-11-30T01:25:17.444Z,36.00
2022-11-30T01:26:17.422Z,37.40
2022-11-30T01:27:17.425Z,35.00
2022-11-30T01:28:17.463Z,33.00
2022-11-30T01:29:17.420Z,34.50
2022-11-30T01:30:17.430Z,40.20
2022-11-30T01:31:17.478Z,33.90
2022-11-30T01:32:17.395Z,34.30
2022-11-30T01:33:17.402Z,33.20
2022-11-30T01:34:17.424Z,31.40
2022-11-30T01:35:17.416Z,31.70
2022-11-30T01:36:17.377Z,30.60
2022-11-30T01:37:17.402Z,29.90
2022-11-30T01:38:17.364Z,32.30
2022-11-30T01:39:17.365Z,30.40
2022-11-30T01:40:17.387Z,29.30
2022-11-30T01:41:17.399Z,31.30
2022-11-30T01:42:17.359Z,31.30
2022-11-30T01:43:17.351Z,29.40
2022-11-30T01:44:20.107Z,29.30
2022-11-30T01:45:18.398Z,29.80
2022-11-30T01:46:17.371Z,30.50
2022-11-30T01:47:18.348Z,34.60
2022-11-30T01:48:17.332Z,36.90
2022-11-30T01:49:17.313Z,36.90
2022-11-30T01:50:17.351Z,37.60
2022-11-30T01:51:17.318Z,38.90
2022-11-30T01:52:17.322Z,38.40
2022-11-30T01:53:17.306Z,40.70
2022-11-30T01:54:17.296Z,44.40
2022-11-30T01:55:17.321Z,47.20
2022-11-30T01:56:17.328Z,42.80
2022-11-30T01:57:17.290Z,40.00
2022-11-30T01:58:17.322Z,42.80
2022-11-30T01:59:17.274Z,35.80
2022-11-30T02:00:17.297Z,34.40
2022-11-30T02:01:17.372Z,34.10
2022-11-30T02:02:17.354Z,34.60
2022-11-30T02:03:17.263Z,34.80
2022-11-30T02:04:17.257Z,33.00
2022-11-30T02:05:17.252Z,30.70
2022-11-30T02:06:17.263Z,34.30
2022-11-30T02:07:17.357Z,32.70
2022-11-30T02:08:17.390Z,31.40
2022-11-30T02:09:17.246Z,32.00
2022-11-30T02:10:17.228Z,32.40
2022-11-30T02:11:17.234Z,33.50
2022-11-30T02:12:17.290Z,33.50
2022-11-30T02:13:17.215Z,33.90
2022-11-30T02:14:17.228Z,32.60
2022-11-30T02:15:17.202Z,31.30
2022-11-30T02:16:17.232Z,30.80
2022-11-30T02:17:17.190Z,31.80
2022-11-30T02:18:17.215Z,32.20
2022-11-30T02:19:17.240Z,32.10
2022-11-30T02:20:17.192Z,31.50
2022-11-30T02:21:17.181Z,31.90
2022-11-30T02:22:17.187Z,31.00
2022-11-30T02:23:17.166Z,31.10
2022-11-30T02:24:17.155Z,30.10
2022-11-30T02:25:17.161Z,30.40
2022-11-30T02:26:17.193Z,29.60
2022-11-30T02:27:17.141Z,29.30
2022-11-30T02:28:17.248Z,29.30
2022-11-30T02:29:17.134Z,29.80
2022-11-30T02:30:17.194Z,30.40
2022-11-30T02:31:17.217Z,30.90
2022-11-30T02:32:17.124Z,30.10
2022-11-30T02:33:17.123Z,29.50
2022-11-30T02:34:17.101Z,31.70
2022-11-30T02:35:17.150Z,31.50
2022-11-30T02:36:17.099Z,37.40
2022-11-30T02:37:17.123Z,31.70
2022-11-30T02:38:17.104Z,31.50
2022-11-30T02:39:17.114Z,53.80
2022-11-30T02:40:17.124Z,33.30
2022-11-30T02:41:17.089Z,33.90
2022-11-30T02:42:17.085Z,31.30
2022-11-30T02:43:17.089Z,32.70
2022-11-30T02:44:17.108Z,35.10
2022-11-30T02:45:17.071Z,33.20
2022-11-30T02:46:17.126Z,34.50
2022-11-30T02:47:17.053Z,32.90
2022-11-30T02:48:17.051Z,34.00
2022-11-30T02:49:17.080Z,48.60
2022-11-30T02:50:17.043Z,61.50
2022-11-30T02:51:17.032Z,42.80
2022-11-30T02:52:17.043Z,30.80
2022-11-30T02:53:17.027Z,29.20
2022-11-30T02:54:17.062Z,30.10
2022-11-30T02:55:17.009Z,30.80
2022-11-30T02:56:17.033Z,31.20
2022-11-30T02:57:17.042Z,34.40
2022-11-30T02:58:16.999Z,33.40
2022-11-30T02:59:17.038Z,34.00
2022-11-30T03:00:16.988Z,33.00
2022-11-30T03:01:17.170Z,31.90
2022-11-30T03:02:17.036Z,31.00
2022-11-30T03:03:17.024Z,29.80
2022-11-30T03:04:16.972Z,31.40
2022-11-30T03:05:17.019Z,31.00
2022-11-30T03:06:16.981Z,30.70
2022-11-30T03:07:17.018Z,30.60
2022-11-30T03:08:16.950Z,30.80
2022-11-30T03:09:17.015Z,30.20
2022-11-30T03:10:16.972Z,29.70
2022-11-30T03:11:16.952Z,30.50
2022-11-30T03:12:16.945Z,30.60
2022-11-30T03:13:16.923Z,32.80
2022-11-30T03:14:17.941Z,30.20
2022-11-30T03:15:16.947Z,31.40
2022-11-30T03:16:16.983Z,29.30
2022-11-30T03:17:16.922Z,30.60
2022-11-30T03:18:16.918Z,30.30
2022-11-30T03:19:16.931Z,28.80
2022-11-30T03:20:16.956Z,29.50
2022-11-30T03:21:16.894Z,30.10
2022-11-30T03:22:16.888Z,30.90
2022-11-30T03:23:16.885Z,29.20
2022-11-30T03:24:16.945Z,32.40
2022-11-30T03:25:16.860Z,32.40
2022-11-30T03:26:16.863Z,31.40
2022-11-30T03:27:16.867Z,32.70
2022-11-30T03:28:16.858Z,33.70
2022-11-30T03:29:16.906Z,36.20
2022-11-30T03:30:16.886Z,36.30
2022-11-30T03:31:16.884Z,35.40
2022-11-30T03:32:16.826Z,37.00
2022-11-30T03:33:16.826Z,37.50
2022-11-30T03:34:16.845Z,38.30
2022-11-30T03:35:16.828Z,36.20
2022-11-30T03:36:16.843Z,37.70
2022-11-30T03:37:16.812Z,37.50
2022-11-30T03:38:16.812Z,37.40
2022-11-30T03:39:16.839Z,37.50
2022-11-30T03:40:16.787Z,36.60
2022-11-30T03:41:17.786Z,36.60
2022-11-30T03:42:16.820Z,37.40
2022-11-30T03:43:16.807Z,34.00
2022-11-30T03:44:16.776Z,36.40
2022-11-30T03:45:16.768Z,37.50
2022-11-30T03:46:16.858Z,34.60
2022-11-30T03:47:16.802Z,33.90
2022-11-30T03:48:16.769Z,34.70
2022-11-30T03:49:16.747Z,33.90
2022-11-30T03:50:16.733Z,36.70
2022-11-30T03:51:16.782Z,49.70
2022-11-30T03:52:16.770Z,44.90
2022-11-30T03:53:16.734Z,43.10
2022-11-30T03:54:16.809Z,40.70
2022-11-30T03:55:16.712Z,34.90
2022-11-30T03:56:16.709Z,35.50
2022-11-30T03:57:16.745Z,34.50
2022-11-30T03:58:16.717Z,34.40
2022-11-30T03:59:16.725Z,36.40
2022-11-30T04:00:16.717Z,36.60
2022-11-30T04:01:16.907Z,36.70
2022-11-30T04:02:16.708Z,37.10
2022-11-30T04:03:16.758Z,36.40
2022-11-30T04:04:16.737Z,35.50
2022-11-30T04:05:16.687Z,34.30
2022-11-30T04:06:16.733Z,35.20
2022-11-30T04:07:16.777Z,38.00
2022-11-30T04:08:16.726Z,34.50
2022-11-30T04:09:16.660Z,35.90
2022-11-30T04:10:16.652Z,33.80
2022-11-30T04:11:16.657Z,34.00
2022-11-30T04:12:16.639Z,33.60
2022-11-30T04:13:16.634Z,33.20
2022-11-30T04:14:16.697Z,31.70
2022-11-30T04:15:16.625Z,32.30
2022-11-30T04:16:16.661Z,31.70
2022-11-30T04:17:16.631Z,32.10
2022-11-30T04:18:16.625Z,31.10
2022-11-30T04:19:16.643Z,31.60
2022-11-30T04:20:16.628Z,31.50
2022-11-30T04:21:16.618Z,30.70
2022-11-30T04:22:16.591Z,30.70
2022-11-30T04:23:16.593Z,30.00
2022-11-30T04:24:16.618Z,28.40
2022-11-30T04:25:16.587Z,26.90
2022-11-30T04:26:16.583Z,28.80
2022-11-30T04:27:16.581Z,29.60
2022-11-30T04:28:16.565Z,29.40
2022-11-30T04:29:16.589Z,27.30
2022-11-30T04:30:16.558Z,26.90
2022-11-30T04:31:16.610Z,28.10
2022-11-30T04:32:16.557Z,26.20
2022-11-30T04:33:16.558Z,28.20
2022-11-30T04:34:16.564Z,27.80
2022-11-30T04:35:16.555Z,27.40
2022-11-30T04:36:16.554Z,27.70
2022-11-30T04:37:16.529Z,27.30
2022-11-30T04:38:16.526Z,28.10
2022-11-30T04:39:16.523Z,26.40
2022-11-30T04:40:16.521Z,27.40
2022-11-30T04:41:16.541Z,27.80
2022-11-30T04:42:16.502Z,27.00
2022-11-30T04:43:16.503Z,28.40
2022-11-30T04:44:16.487Z,27.00
2022-11-30T04:45:16.507Z,27.60
2022-11-30T04:46:16.542Z,26.80
2022-11-30T04:47:16.505Z,28.40
2022-11-30T04:48:16.481Z,27.60
2022-11-30T04:49:16.485Z,29.10
2022-11-30T04:50:16.469Z,28.60
2022-11-30T04:51:16.481Z,27.80
2022-11-30T04:52:16.478Z,27.30
2022-11-30T04:53:16.451Z,28.10
2022-11-30T04:54:16.443Z,27.80
2022-11-30T04:55:16.449Z,26.70
2022-11-30T04:56:16.438Z,25.10
2022-11-30T04:57:16.475Z,25.80
2022-11-30T04:58:16.440Z,29.30
2022-11-30T04:59:16.420Z,24.40
2022-11-30T05:00:16.425Z,27.60
2022-11-30T05:01:16.471Z,27.40
2022-11-30T05:02:16.421Z,25.10
2022-11-30T05:03:16.431Z,24.80
2022-11-30T05:04:17.445Z,24.70
2022-11-30T05:05:16.411Z,24.70
2022-11-30T05:06:16.382Z,24.70
2022-11-30T05:07:16.491Z,24.50
2022-11-30T05:08:16.399Z,25.90
2022-11-30T05:09:16.395Z,25.50
2022-11-30T05:10:16.372Z,25.90
2022-11-30T05:11:16.394Z,25.60
2022-11-30T05:12:16.354Z,24.70
2022-11-30T05:13:16.367Z,25.10
2022-11-30T05:14:16.443Z,25.10
2022-11-30T05:15:16.439Z,25.20
2022-11-30T05:16:16.401Z,24.20
2022-11-30T05:17:16.343Z,24.70
2022-11-30T05:18:16.388Z,28.10
2022-11-30T05:19:16.369Z,33.40
2022-11-30T05:20:16.318Z,30.20
2022-11-30T05:21:16.312Z,33.90
2022-11-30T05:22:16.322Z,33.70
2022-11-30T05:23:16.331Z,36.10
2022-11-30T05:24:16.329Z,37.40
2022-11-30T05:25:16.316Z,42.10
2022-11-30T05:26:16.342Z,35.60
2022-11-30T05:27:22.239Z,31.50
2022-11-30T05:28:18.294Z,29.50
2022-11-30T05:29:16.272Z,29.80
2022-11-30T05:30:16.320Z,29.90
2022-11-30T05:31:16.324Z,32.40
2022-11-30T05:32:16.278Z,29.60
2022-11-30T05:33:16.261Z,33.20
2022-11-30T05:34:16.253Z,31.30
2022-11-30T05:35:16.277Z,37.40
2022-11-30T05:36:16.267Z,34.20
2022-11-30T05:37:16.245Z,40.20
2022-11-30T05:38:16.225Z,33.00
2022-11-30T05:39:16.237Z,35.90
2022-11-30T05:40:16.213Z,31.60
2022-11-30T05:41:16.375Z,29.70
2022-11-30T05:42:16.225Z,30.90
2022-11-30T05:43:16.209Z,32.60
2022-11-30T05:44:16.229Z,32.90
2022-11-30T05:45:16.203Z,33.00
2022-11-30T05:46:16.302Z,32.10
2022-11-30T05:47:16.273Z,32.20
2022-11-30T05:48:16.199Z,31.90
2022-11-30T05:49:16.220Z,32.00
2022-11-30T05:50:16.175Z,33.40
2022-11-30T05:51:16.168Z,33.40
2022-11-30T05:52:16.184Z,32.40
2022-11-30T05:53:16.197Z,33.10
2022-11-30T05:54:16.147Z,31.20
2022-11-30T05:55:16.168Z,31.60
2022-11-30T05:56:16.171Z,29.70
2022-11-30T05:57:16.181Z,29.70
2022-11-30T05:58:17.169Z,29.80
2022-11-30T05:59:16.138Z,31.00
2022-11-30T06:00:16.150Z,32.50
2022-11-30T06:01:16.111Z,31.40
2022-11-30T06:02:16.200Z,32.60
2022-11-30T06:03:16.250Z,32.80
2022-11-30T06:04:16.112Z,31.30
2022-11-30T06:05:17.107Z,30.60
2022-11-30T06:06:16.108Z,52.40
2022-11-30T06:07:16.117Z,49.90
2022-11-30T06:08:16.110Z,31.70
2022-11-30T06:09:16.128Z,32.10
2022-11-30T06:10:16.086Z,32.00
2022-11-30T06:11:16.076Z,31.70
2022-11-30T06:12:16.073Z,58.80
2022-11-30T06:13:16.096Z,34.40
2022-11-30T06:14:16.076Z,31.10
2022-11-30T06:15:16.092Z,31.20
2022-11-30T06:16:16.085Z,29.50
2022-11-30T06:17:16.071Z,29.80
2022-11-30T06:18:16.123Z,30.40
2022-11-30T06:19:16.042Z,31.40
2022-11-30T06:20:16.052Z,33.70
2022-11-30T06:21:21.033Z,33.50
2022-11-30T06:22:18.032Z,32.00
2022-11-30T06:23:16.000Z,29.80
2022-11-30T06:24:16.031Z,29.00
2022-11-30T06:25:16.034Z,30.20
2022-11-30T06:26:15.990Z,29.90
2022-11-30T06:27:16.001Z,39.90
2022-11-30T06:28:16.006Z,31.80
2022-11-30T06:29:15.991Z,33.60
2022-11-30T06:30:16.012Z,32.40
2022-11-30T06:31:16.081Z,33.00
2022-11-30T06:32:16.010Z,33.00
2022-11-30T06:33:15.986Z,33.30
2022-11-30T06:34:15.953Z,34.10
2022-11-30T06:35:15.955Z,61.80
2022-11-30T06:36:15.942Z,31.20
2022-11-30T06:37:16.032Z,31.10
2022-11-30T06:38:15.939Z,46.50
2022-11-30T06:39:15.957Z,58.90
2022-11-30T06:40:15.952Z,37.90
2022-11-30T06:41:15.930Z,52.80
2022-11-30T06:42:15.934Z,36.70
2022-11-30T06:43:15.928Z,36.10
2022-11-30T06:44:15.900Z,35.40
2022-11-30T06:45:15.920Z,36.10
2022-11-30T06:46:15.962Z,37.50
2022-11-30T06:47:15.910Z,35.70
2022-11-30T06:48:15.928Z,35.90
2022-11-30T06:49:15.889Z,36.60
2022-11-30T06:50:15.900Z,36.10
2022-11-30T06:51:15.871Z,34.30
2022-11-30T06:52:16.131Z,35.40
2022-11-30T06:53:16.063Z,33.90
2022-11-30T06:54:16.018Z,34.50
2022-11-30T06:55:15.888Z,34.90
2022-11-30T06:56:15.883Z,33.50
2022-11-30T06:57:15.898Z,32.40
2022-11-30T06:58:15.840Z,30.90
2022-11-30T06:59:15.834Z,34.10
2022-11-30T07:00:15.880Z,31.90
2022-11-30T07:01:16.141Z,30.70
2022-11-30T07:02:18.294Z,30.80
2022-11-30T07:03:16.824Z,31.50
2022-11-30T07:04:15.911Z,29.50
2022-11-30T07:05:15.829Z,30.00
2022-11-30T07:06:15.814Z,30.10
2022-11-30T07:07:15.885Z,30.00
2022-11-30T07:08:15.789Z,31.00
2022-11-30T07:09:15.816Z,30.90
2022-11-30T07:10:19.945Z,30.70
2022-11-30T07:11:16.904Z,33.90
2022-11-30T07:12:15.855Z,32.30
2022-11-30T07:13:16.106Z,32.40
2022-11-30T07:14:15.797Z,32.10
2022-11-30T07:15:15.759Z,28.70
2022-11-30T07:16:15.840Z,28.40
2022-11-30T07:17:15.799Z,28.80
2022-11-30T07:18:15.799Z,30.00
2022-11-30T07:19:15.761Z,27.20
2022-11-30T07:20:15.778Z,27.70
2022-11-30T07:21:15.796Z,29.20
2022-11-30T07:22:15.805Z,29.20
2022-11-30T07:23:15.736Z,33.20
2022-11-30T07:24:15.724Z,32.90
2022-11-30T07:25:15.735Z,30.00
2022-11-30T07:26:15.840Z,30.60
2022-11-30T07:27:15.830Z,29.90
2022-11-30T07:28:15.707Z,32.60
2022-11-30T07:29:15.691Z,32.70
2022-11-30T07:30:15.710Z,31.70
2022-11-30T07:31:16.642Z,32.60
2022-11-30T07:32:16.751Z,31.40
2022-11-30T07:33:15.695Z,35.10
2022-11-30T07:34:15.684Z,32.90
2022-11-30T07:35:15.699Z,32.60
2022-11-30T07:36:15.707Z,36.00
2022-11-30T07:37:15.731Z,32.10
2022-11-30T07:38:15.664Z,33.30
2022-11-30T07:39:15.664Z,32.60
2022-11-30T07:40:15.642Z,32.70
2022-11-30T07:41:15.655Z,34.40
2022-11-30T07:42:15.649Z,31.30
2022-11-30T07:43:15.662Z,33.10
2022-11-30T07:44:15.702Z,34.80
2022-11-30T07:45:15.642Z,33.90
2022-11-30T07:46:15.788Z,38.40
2022-11-30T07:47:15.649Z,37.60
2022-11-30T07:48:15.609Z,44.70
2022-11-30T07:49:15.610Z,37.10
2022-11-30T07:50:15.592Z,35.10
2022-11-30T07:51:15.625Z,34.50
2022-11-30T07:52:15.622Z,39.50
2022-11-30T07:53:15.603Z,34.80
2022-11-30T07:54:15.617Z,36.30
2022-11-30T07:55:15.579Z,34.30
2022-11-30T07:56:15.588Z,31.60
2022-11-30T07:57:15.585Z,31.10
2022-11-30T07:58:17.476Z,31.20
2022-11-30T07:59:16.591Z,31.30
2022-11-30T08:00:15.590Z,30.30
2022-11-30T08:01:15.717Z,29.40
2022-11-30T08:02:15.784Z,29.00
2022-11-30T08:03:15.527Z,28.90
2022-11-30T08:04:15.675Z,28.10
2022-11-30T08:05:15.543Z,29.90
2022-11-30T08:06:15.513Z,27.90
2022-11-30T08:07:15.514Z,26.80
2022-11-30T08:08:15.519Z,30.90
2022-11-30T08:09:20.493Z,38.80
2022-11-30T08:10:17.519Z,40.10
2022-11-30T08:11:15.491Z,55.00
2022-11-30T08:12:15.502Z,63.50
2022-11-30T08:13:15.499Z,43.30
2022-11-30T08:14:15.478Z,40.60
2022-11-30T08:15:20.142Z,33.10
2022-11-30T08:16:17.507Z,32.40
2022-11-30T08:17:15.486Z,28.80
2022-11-30T08:18:15.471Z,29.30
2022-11-30T08:19:15.465Z,28.90
2022-11-30T08:20:15.459Z,26.80
2022-11-30T08:21:15.542Z,28.20
2022-11-30T08:22:15.440Z,26.90
2022-11-30T08:23:15.460Z,26.80
2022-11-30T08:24:15.469Z,26.40
2022-11-30T08:25:15.457Z,26.50
2022-11-30T08:26:15.433Z,26.90
2022-11-30T08:27:15.411Z,27.20
2022-11-30T08:28:15.417Z,26.50
2022-11-30T08:29:15.399Z,26.80
2022-11-30T08:30:15.420Z,27.20
2022-11-30T08:31:15.572Z,26.80
2022-11-30T08:32:15.423Z,26.10
2022-11-30T08:33:15.401Z,26.90
2022-11-30T08:34:15.396Z,28.10
2022-11-30T08:35:15.396Z,27.10
2022-11-30T08:36:15.438Z,28.50
2022-11-30T08:37:15.367Z,28.00
2022-11-30T08:38:15.369Z,27.90
2022-11-30T08:39:15.362Z,27.60
2022-11-30T08:40:16.362Z,28.80
2022-11-30T08:41:15.374Z,27.80
2022-11-30T08:42:15.350Z,32.50
2022-11-30T08:43:15.356Z,40.40
2022-11-30T08:44:15.327Z,37.10
2022-11-30T08:45:15.333Z,37.80
2022-11-30T08:46:48.975Z,34.90
2022-11-30T08:47:17.422Z,38.70
2022-11-30T08:48:15.311Z,35.40
2022-11-30T08:49:23.769Z,33.10
2022-11-30T08:50:17.313Z,37.60
2022-11-30T08:51:15.310Z,30.10
2022-11-30T08:53:17.306Z,30.80
2022-11-30T08:54:15.305Z,29.00
2022-11-30T08:55:15.283Z,30.20
2022-11-30T08:56:15.295Z,29.10
2022-11-30T08:57:15.307Z,32.00
2022-11-30T08:58:15.259Z,29.40
2022-11-30T08:59:15.396Z,31.80
2022-11-30T09:00:15.272Z,28.50
2022-11-30T09:01:15.244Z,27.80
2022-11-30T09:02:15.272Z,29.70
2022-11-30T09:03:15.247Z,30.70
2022-11-30T09:04:15.226Z,27.60
2022-11-30T09:05:15.625Z,29.20
2022-11-30T09:06:15.228Z,29.20
2022-11-30T09:07:15.246Z,31.20
2022-11-30T09:08:15.252Z,29.50
2022-11-30T09:09:15.242Z,30.90
2022-11-30T09:10:15.529Z,31.10
2022-11-30T09:11:15.204Z,31.20
2022-11-30T09:12:15.334Z,28.90
2022-11-30T09:13:15.295Z,28.60
2022-11-30T09:14:15.208Z,27.80
2022-11-30T09:15:15.193Z,29.00
2022-11-30T09:16:15.261Z,28.30
2022-11-30T09:17:15.267Z,28.70
2022-11-30T09:18:15.191Z,28.40
2022-11-30T09:19:15.170Z,27.10
2022-11-30T09:20:15.214Z,27.80
2022-11-30T09:21:15.194Z,27.70
2022-11-30T09:22:15.171Z,29.50
2022-11-30T09:23:15.162Z,30.80
2022-11-30T09:24:15.150Z,28.80
2022-11-30T09:25:15.162Z,27.80
2022-11-30T09:26:15.120Z,27.90
2022-11-30T09:27:15.129Z,28.70
2022-11-30T09:28:15.143Z,26.40
2022-11-30T09:29:15.137Z,26.70
2022-11-30T09:30:15.173Z,27.40
2022-11-30T09:31:15.208Z,26.70
2022-11-30T09:32:15.111Z,28.30
2022-11-30T09:33:15.087Z,26.70
2022-11-30T09:34:15.093Z,28.30
2022-11-30T09:35:15.090Z,28.60
2022-11-30T09:36:15.115Z,29.40
2022-11-30T09:37:15.087Z,28.40
2022-11-30T09:38:15.084Z,28.30
2022-11-30T09:39:15.063Z,28.90
2022-11-30T09:40:15.072Z,28.30
2022-11-30T09:41:15.132Z,33.30
2022-11-30T09:42:15.076Z,34.40
2022-11-30T09:43:15.081Z,32.40
2022-11-30T09:44:15.054Z,30.60
2022-11-30T09:45:15.040Z,29.60
2022-11-30T09:46:15.287Z,30.60
2022-11-30T09:47:15.070Z,31.60
2022-11-30T09:48:15.044Z,35.70
2022-11-30T09:49:15.028Z,35.20
2022-11-30T09:50:15.009Z,35.20
2022-11-30T09:51:15.085Z,35.60
2022-11-30T09:52:15.043Z,36.90
2022-11-30T09:53:15.026Z,35.40
2022-11-30T09:54:15.011Z,36.90
2022-11-30T09:55:14.994Z,33.80
2022-11-30T09:56:14.978Z,35.50
2022-11-30T09:57:14.964Z,34.20
2022-11-30T09:58:15.009Z,35.50
2022-11-30T09:59:14.995Z,34.40
2022-11-30T10:00:14.973Z,36.80
2022-11-30T10:01:15.080Z,38.10
2022-11-30T10:02:15.052Z,35.00
2022-11-30T10:03:15.063Z,34.80
2022-11-30T10:04:14.952Z,32.10
2022-11-30T10:05:15.487Z,33.60
2022-11-30T10:06:14.933Z,32.70
2022-11-30T10:07:14.998Z,33.90
2022-11-30T10:08:17.754Z,32.70
2022-11-30T10:09:14.956Z,33.30
2022-11-30T10:11:16.957Z,33.30
2022-11-30T10:12:14.921Z,32.70
2022-11-30T10:13:14.916Z,32.90
2022-11-30T10:14:14.926Z,34.60
2022-11-30T10:15:14.962Z,35.20
2022-11-30T10:16:14.935Z,38.80
2022-11-30T10:17:14.911Z,37.10
2022-11-30T10:18:14.914Z,37.30
2022-11-30T10:19:14.891Z,35.70
2022-11-30T10:20:14.891Z,35.80
2022-11-30T10:21:14.869Z,38.40
2022-11-30T10:22:14.848Z,39.30
2022-11-30T10:23:14.846Z,36.70
2022-11-30T10:24:14.851Z,36.70
2022-11-30T10:25:14.857Z,35.20
2022-11-30T10:26:14.863Z,37.30
2022-11-30T10:27:14.860Z,37.60
2022-11-30T10:28:45.057Z,36.60
2022-11-30T10:29:16.819Z,39.80
2022-11-30T10:30:14.827Z,38.60
2022-11-30T10:31:14.848Z,38.00
2022-11-30T10:32:14.838Z,37.40
2022-11-30T10:33:14.852Z,38.00
2022-11-30T10:34:14.797Z,36.00
2022-11-30T10:35:14.808Z,34.50
2022-11-30T10:36:14.798Z,35.70
2022-11-30T10:37:14.812Z,34.40
2022-11-30T10:38:14.775Z,38.10
2022-11-30T10:39:14.782Z,36.40
2022-11-30T10:40:14.872Z,37.70
2022-11-30T10:41:14.771Z,36.50
2022-11-30T10:42:14.760Z,37.20
2022-11-30T10:43:14.786Z,39.00
2022-11-30T10:44:14.796Z,39.30
2022-11-30T10:45:14.841Z,39.70
2022-11-30T10:46:17.147Z,39.50
2022-11-30T10:47:15.759Z,41.10
2022-11-30T10:48:14.834Z,39.80
2022-11-30T10:49:14.766Z,41.40
2022-11-30T10:50:14.820Z,40.30
2022-11-30T10:51:14.719Z,39.80
2022-11-30T10:52:14.782Z,41.20
2022-11-30T10:53:14.947Z,42.20
2022-11-30T10:54:14.951Z,42.10
2022-11-30T10:55:14.844Z,42.20
2022-11-30T10:56:14.734Z,41.40
2022-11-30T10:57:14.798Z,41.20
2022-11-30T10:58:14.702Z,41.80
2022-11-30T10:59:14.893Z,41.60
2022-11-30T11:00:14.855Z,43.70
2022-11-30T11:01:14.911Z,42.80
2022-11-30T11:02:14.827Z,43.10
2022-11-30T11:03:14.829Z,40.50
2022-11-30T11:04:15.576Z,35.40
2022-11-30T11:05:14.829Z,33.60
2022-11-30T11:06:14.855Z,31.40
2022-11-30T11:07:14.948Z,30.80
2022-11-30T11:08:14.965Z,31.00
2022-11-30T11:09:28.661Z,28.80
2022-11-30T11:10:14.854Z,28.50
2022-11-30T11:11:14.893Z,29.90
2022-11-30T11:12:14.760Z,29.60
2022-11-30T11:13:14.974Z,28.40
2022-11-30T11:14:14.763Z,28.50
2022-11-30T11:15:14.806Z,28.40
2022-11-30T11:16:14.989Z,28.80
2022-11-30T11:17:14.804Z,28.80
2022-11-30T11:18:14.788Z,28.50
2022-11-30T11:19:14.722Z,28.30
2022-11-30T11:20:15.015Z,26.20
2022-11-30T11:21:15.146Z,25.90
2022-11-30T11:22:14.940Z,27.30
2022-11-30T11:23:15.460Z,26.60
2022-11-30T11:24:15.183Z,26.70
2022-11-30T11:25:14.881Z,25.60
2022-11-30T11:26:15.433Z,25.70
2022-11-30T11:27:15.483Z,25.70
2022-11-30T11:28:15.259Z,25.50
2022-11-30T11:29:15.861Z,26.50
2022-11-30T11:30:14.953Z,24.90
2022-11-30T11:31:15.306Z,24.50
2022-11-30T11:32:14.715Z,25.10
2022-11-30T11:33:15.114Z,25.10
2022-11-30T11:34:14.784Z,23.90
2022-11-30T11:35:14.544Z,24.60
2022-11-30T11:36:14.552Z,24.60
2022-11-30T11:37:14.555Z,24.30
2022-11-30T11:38:14.519Z,23.20
2022-11-30T11:39:14.537Z,24.60
2022-11-30T11:40:14.522Z,24.30
2022-11-30T11:41:14.505Z,23.50
2022-11-30T11:42:19.068Z,25.00
2022-11-30T11:43:16.482Z,22.90
2022-11-30T11:44:14.500Z,22.80
2022-11-30T11:45:14.492Z,21.00
2022-11-30T11:46:14.537Z,21.10
2022-11-30T11:47:14.474Z,20.10
2022-11-30T11:48:14.498Z,18.10
2022-11-30T11:49:14.583Z,17.50
2022-11-30T11:50:14.453Z,14.90
2022-11-30T11:51:14.528Z,17.10
2022-11-30T11:52:14.451Z,16.10
2022-11-30T11:53:14.972Z,16.40
2022-11-30T11:54:14.454Z,17.50
2022-11-30T11:55:14.660Z,18.20
2022-11-30T11:56:14.425Z,16.00
2022-11-30T11:57:14.432Z,16.30
2022-11-30T11:58:14.460Z,15.90
2022-11-30T11:59:14.409Z,15.90
2022-11-30T12:00:16.311Z,15.10
2022-11-30T12:01:39.116Z,15.60
2022-11-30T12:02:16.457Z,15.00
2022-11-30T12:03:14.403Z,14.80
2022-11-30T12:04:14.434Z,15.00
2022-11-30T12:05:14.370Z,15.50
2022-11-30T12:06:14.529Z,15.40
2022-11-30T12:07:17.913Z,15.20
2022-11-30T12:08:15.396Z,14.20
2022-11-30T12:09:14.366Z,15.20
2022-11-30T12:10:43.608Z,14.70
2022-11-30T12:11:16.467Z,14.80
2022-11-30T12:12:14.354Z,15.30
2022-11-30T12:13:14.377Z,15.80
2022-11-30T12:14:14.366Z,15.50
2022-11-30T12:15:14.336Z,14.70
2022-11-30T12:16:14.373Z,15.50
2022-11-30T12:17:14.328Z,14.90
2022-11-30T12:18:19.443Z,15.10
2022-11-30T12:19:16.331Z,14.80
2022-11-30T12:20:14.334Z,14.40
2022-11-30T12:21:14.348Z,14.70
2022-11-30T12:22:14.290Z,14.70
2022-11-30T12:23:14.284Z,13.90
2022-11-30T12:24:14.293Z,15.10
2022-11-30T12:25:14.293Z,14.90
2022-11-30T12:26:14.300Z,15.20
2022-11-30T12:27:14.314Z,14.40
2022-11-30T12:28:14.347Z,15.40
2022-11-30T12:29:14.258Z,15.00
2022-11-30T12:30:14.424Z,14.80
2022-11-30T12:31:14.359Z,15.40
2022-11-30T12:32:14.258Z,16.30
2022-11-30T12:33:14.280Z,17.10
2022-11-30T12:34:14.233Z,15.10
2022-11-30T12:35:14.222Z,15.20
2022-11-30T12:36:14.236Z,15.70
2022-11-30T12:37:14.218Z,15.50
2022-11-30T12:38:14.258Z,14.90
2022-11-30T12:39:14.201Z,15.50
2022-11-30T12:40:14.201Z,15.20
2022-11-30T12:41:14.208Z,15.10
2022-11-30T12:42:14.192Z,14.90
2022-11-30T12:43:14.187Z,15.00
2022-11-30T12:44:14.195Z,14.60
2022-11-30T12:45:14.191Z,15.90
2022-11-30T12:46:14.222Z,15.80
2022-11-30T12:47:14.194Z,16.70
2022-11-30T12:48:14.166Z,16.30
2022-11-30T12:49:14.298Z,16.40
2022-11-30T12:50:14.183Z,17.20
2022-11-30T12:51:14.143Z,18.00
2022-11-30T12:52:14.298Z,17.40
2022-11-30T12:53:14.139Z,17.50
2022-11-30T12:54:14.171Z,17.30